createdAt,value
2018-04-14T00:00:12.638Z,38.60
2018-04-14T00:02:40.681Z,38.37
2018-04-14T00:05:08.672Z,39.87
2018-04-14T00:07:36.603Z,38.13
2018-04-14T00:10:04.828Z,39.23
2018-04-14T00:12:32.799Z,40.50
2018-04-14T00:15:00.752Z,40.27
2018-04-14T00:17:30.660Z,38.80
2018-04-14T00:19:58.570Z,47.47
2018-04-14T00:22:26.499Z,47.43
2018-04-14T00:24:54.453Z,44.20
2018-04-14T00:27:22.440Z,40.30
2018-04-14T00:29:50.352Z,48.33
2018-04-14T00:32:18.359Z,40.80
2018-04-14T00:34:46.343Z,40.90
2018-04-14T00:37:14.353Z,41.10
2018-04-14T00:39:42.398Z,40.10
2018-04-14T00:42:10.332Z,40.70
2018-04-14T00:44:38.341Z,40.83
2018-04-14T00:47:06.267Z,44.13
2018-04-14T00:49:34.310Z,46.97
2018-04-14T00:52:02.247Z,45.37
2018-04-14T00:54:30.249Z,45.77
2018-04-14T00:56:58.187Z,43.13
2018-04-14T00:59:26.093Z,43.60
2018-04-14T01:01:54.088Z,41.20
2018-04-14T01:04:22.061Z,45.40
2018-04-14T01:06:50.079Z,42.57
2018-04-14T01:09:18.112Z,43.50
2018-04-14T01:11:46.040Z,42.60
2018-04-14T01:14:13.966Z,43.60
2018-04-14T01:16:41.933Z,46.47
2018-04-14T01:19:09.891Z,45.37
2018-04-14T01:21:37.898Z,41.77
2018-04-14T01:24:05.867Z,46.00
2018-04-14T01:26:33.754Z,44.10
2018-04-14T01:29:02.021Z,45.30
2018-04-14T01:31:29.989Z,45.77
2018-04-14T01:33:57.910Z,49.40
2018-04-14T01:36:25.854Z,45.33
2018-04-14T01:38:53.772Z,45.20
2018-04-14T01:41:21.689Z,43.73
2018-04-14T01:43:49.619Z,47.37
2018-04-14T01:46:17.555Z,43.43
2018-04-14T01:48:45.543Z,49.00
2018-04-14T01:51:13.467Z,47.60
2018-04-14T01:53:41.396Z,47.40
2018-04-14T01:56:09.343Z,44.87
2018-04-14T01:58:37.295Z,46.77
2018-04-14T02:01:05.232Z,50.77
2018-04-14T02:03:33.148Z,46.73
2018-04-14T02:06:01.076Z,46.70
2018-04-14T02:08:29.011Z,46.87
2018-04-14T02:10:56.948Z,45.50
2018-04-14T02:13:24.876Z,46.63
2018-04-14T02:15:52.815Z,49.03
2018-04-14T02:18:20.752Z,48.60
2018-04-14T02:20:48.663Z,45.10
2018-04-14T02:23:16.594Z,53.37
2018-04-14T02:25:44.665Z,50.23
2018-04-14T02:28:12.592Z,50.47
2018-04-14T02:30:40.505Z,47.43
2018-04-14T02:33:08.411Z,49.00
2018-04-14T02:35:36.341Z,49.07
2018-04-14T02:38:04.292Z,51.03
2018-04-14T02:40:32.207Z,48.90
2018-04-14T02:43:00.135Z,50.23
2018-04-14T02:45:28.056Z,48.07
2018-04-14T02:47:56.097Z,48.77
2018-04-14T02:50:24.014Z,48.90
2018-04-14T02:52:51.955Z,50.97
2018-04-14T02:55:19.883Z,49.50
2018-04-14T02:57:47.813Z,47.63
2018-04-14T03:00:15.796Z,48.23
2018-04-14T03:02:43.863Z,46.30
2018-04-14T03:05:11.918Z,46.17
2018-04-14T03:07:39.972Z,48.20
2018-04-14T03:10:07.884Z,49.37
2018-04-14T03:12:36.023Z,51.27
2018-04-14T03:15:03.922Z,48.93
2018-04-14T03:17:31.867Z,50.30
2018-04-14T03:19:59.821Z,48.83
2018-04-14T03:22:27.887Z,46.23
2018-04-14T03:24:56.011Z,50.93
2018-04-14T03:27:23.948Z,51.80
2018-04-14T03:29:51.918Z,51.93
2018-04-14T03:32:19.818Z,55.03
2018-04-14T03:34:47.751Z,47.87
2018-04-14T03:37:15.723Z,49.87
2018-04-14T03:39:43.625Z,54.17
2018-04-14T03:42:11.623Z,51.93
2018-04-14T03:44:39.531Z,52.30
2018-04-14T03:47:07.459Z,55.70
2018-04-14T03:49:35.382Z,58.57
2018-04-14T03:52:03.307Z,55.23
2018-04-14T03:54:31.239Z,49.93
2018-04-14T03:56:59.150Z,50.40
2018-04-14T03:59:27.099Z,53.83
2018-04-14T04:01:55.022Z,53.90
2018-04-14T04:04:22.952Z,48.97
2018-04-14T04:06:50.881Z,49.53
2018-04-14T04:09:18.875Z,50.70
2018-04-14T04:11:46.777Z,58.13
2018-04-14T04:14:14.695Z,53.67
2018-04-14T04:16:42.640Z,52.30
2018-04-14T04:19:22.367Z,54.20
2018-04-14T04:22:02.166Z,51.27
2018-04-14T04:27:27.390Z,49.60
2018-04-14T04:29:55.335Z,49.00
2018-04-14T04:32:23.270Z,53.00
2018-04-14T04:34:51.188Z,51.00
2018-04-14T04:37:19.108Z,48.80
2018-04-14T04:39:47.023Z,53.80
2018-04-14T04:42:14.975Z,50.17
2018-04-14T04:44:42.930Z,49.43
2018-04-14T04:47:10.906Z,53.27
2018-04-14T04:49:38.810Z,51.67
2018-04-14T04:52:06.785Z,51.13
2018-04-14T04:54:34.686Z,51.57
2018-04-14T04:57:02.696Z,50.00
2018-04-14T04:59:30.643Z,50.70
2018-04-14T05:01:58.577Z,53.77
2018-04-14T05:04:26.502Z,48.47
2018-04-14T05:06:54.428Z,51.77
2018-04-14T05:09:22.359Z,51.73
2018-04-14T05:11:50.290Z,54.17
2018-04-14T05:14:18.222Z,57.57
2018-04-14T05:16:46.165Z,56.13
2018-04-14T05:19:14.099Z,57.70
2018-04-14T05:21:42.036Z,56.87
2018-04-14T05:24:09.984Z,74.67
2018-04-14T05:26:37.897Z,62.67
2018-04-14T05:29:05.829Z,59.80
2018-04-14T05:31:33.780Z,63.10
2018-04-14T05:34:01.713Z,65.03
2018-04-14T05:36:29.624Z,70.63
2018-04-14T05:38:57.581Z,76.40
2018-04-14T05:41:26.300Z,79.60
2018-04-14T05:43:54.316Z,79.97
2018-04-14T05:46:22.250Z,91.03
2018-04-14T05:48:50.176Z,89.33
2018-04-14T05:51:18.149Z,84.17
2018-04-14T05:53:46.082Z,91.67
2018-04-14T05:56:13.996Z,86.17
2018-04-14T05:58:41.934Z,87.93
2018-04-14T06:01:09.875Z,91.37
2018-04-14T06:03:37.792Z,93.03
2018-04-14T06:06:05.707Z,93.53
2018-04-14T06:08:33.643Z,96.77
2018-04-14T06:11:01.538Z,90.13
2018-04-14T06:13:29.464Z,87.83
2018-04-14T06:15:57.422Z,87.30
2018-04-14T06:18:25.530Z,89.43
2018-04-14T06:20:53.539Z,93.90
2018-04-14T06:23:21.535Z,95.27
2018-04-14T06:25:49.483Z,97.17
2018-04-14T06:28:17.601Z,95.83
2018-04-14T06:30:45.548Z,100.33
2018-04-14T06:33:13.516Z,104.03
2018-04-14T06:35:42.011Z,89.53
2018-04-14T06:38:09.942Z,84.87
2018-04-14T06:40:37.886Z,98.73
2018-04-14T06:43:06.791Z,100.17
2018-04-14T06:45:34.751Z,98.33
2018-04-14T06:48:02.715Z,98.17
2018-04-14T06:50:30.686Z,97.23
2018-04-14T06:52:58.657Z,95.80
2018-04-14T06:55:26.595Z,96.90
2018-04-14T06:57:54.528Z,98.23
2018-04-14T07:00:22.540Z,89.83
2018-04-14T07:02:50.537Z,83.20
2018-04-14T07:05:18.464Z,85.03
2018-04-14T07:07:46.404Z,85.80
2018-04-14T07:10:14.355Z,80.63
2018-04-14T07:12:42.297Z,73.63
2018-04-14T07:15:10.211Z,82.37
2018-04-14T07:17:38.197Z,78.17
2018-04-14T07:20:06.115Z,82.03
2018-04-14T07:22:34.054Z,69.17
2018-04-14T07:25:01.995Z,70.07
2018-04-14T07:27:29.960Z,76.10
2018-04-14T07:29:57.947Z,82.43
2018-04-14T07:32:25.919Z,82.90
2018-04-14T07:34:53.972Z,92.60
2018-04-14T07:37:21.881Z,88.50
2018-04-14T07:39:50.102Z,85.93
2018-04-14T07:42:18.245Z,91.43
2018-04-14T07:44:46.147Z,94.50
2018-04-14T07:47:14.083Z,94.80
2018-04-14T07:49:41.983Z,94.53
2018-04-14T07:52:09.887Z,89.70
2018-04-14T07:54:37.809Z,90.23
2018-04-14T07:57:05.719Z,86.83
2018-04-14T07:59:33.668Z,76.37
2018-04-14T08:02:01.582Z,83.57
2018-04-14T08:04:29.523Z,73.27
2018-04-14T08:06:57.450Z,79.07
2018-04-14T08:09:25.372Z,69.73
2018-04-14T08:11:53.333Z,74.53
2018-04-14T08:14:22.106Z,76.07
2018-04-14T08:16:50.076Z,74.37
2018-04-14T08:19:18.011Z,74.60
2018-04-14T08:21:45.927Z,81.33
2018-04-14T08:24:14.011Z,75.00
2018-04-14T08:26:41.964Z,70.20
2018-04-14T08:29:09.870Z,69.57
2018-04-14T08:31:37.791Z,75.80
2018-04-14T08:34:05.716Z,67.63
2018-04-14T08:36:33.648Z,79.23
2018-04-14T08:39:01.581Z,74.57
2018-04-14T08:41:29.488Z,64.63
2018-04-14T08:43:57.418Z,66.27
2018-04-14T08:46:25.359Z,61.93
2018-04-14T08:48:53.280Z,63.57
2018-04-14T08:51:21.184Z,57.50
2018-04-14T08:53:49.155Z,59.53
2018-04-14T08:56:17.079Z,52.70
2018-04-14T08:58:45.094Z,47.07
2018-04-14T09:01:12.986Z,43.27
2018-04-14T09:03:40.892Z,34.97
2018-04-14T09:06:08.819Z,36.70
2018-04-14T09:08:36.748Z,35.33
2018-04-14T09:11:04.715Z,33.13
2018-04-14T09:13:32.667Z,33.80
2018-04-14T09:16:00.562Z,31.90
2018-04-14T09:18:28.546Z,36.20
2018-04-14T09:20:56.467Z,36.80
2018-04-14T09:23:24.458Z,33.13
2018-04-14T09:25:52.372Z,32.20
2018-04-14T09:28:20.312Z,30.97
2018-04-14T09:30:48.237Z,30.23
2018-04-14T09:33:16.204Z,27.70
2018-04-14T09:35:44.108Z,29.30
2018-04-14T09:38:12.639Z,30.10
2018-04-14T09:40:40.579Z,30.23
2018-04-14T09:43:08.546Z,26.07
2018-04-14T09:45:36.463Z,29.27
2018-04-14T09:48:04.380Z,27.73
2018-04-14T09:50:33.427Z,28.17
2018-04-14T09:53:01.364Z,27.80
2018-04-14T09:55:29.265Z,29.17
2018-04-14T09:57:57.184Z,27.03
2018-04-14T10:00:27.009Z,27.23
2018-04-14T10:02:59.876Z,25.13
2018-04-14T10:05:27.754Z,23.30
2018-04-14T10:07:55.696Z,22.77
2018-04-14T10:10:23.643Z,23.10
2018-04-14T10:12:51.555Z,20.63
2018-04-14T10:15:19.479Z,20.53
2018-04-14T10:17:47.491Z,19.43
2018-04-14T10:20:15.419Z,22.33
2018-04-14T10:22:43.397Z,20.77
2018-04-14T10:25:11.315Z,20.20
2018-04-14T10:27:39.239Z,18.60
2018-04-14T10:30:07.263Z,18.40
2018-04-14T10:32:35.535Z,17.33
2018-04-14T10:35:03.488Z,17.93
2018-04-14T10:37:31.426Z,20.43
2018-04-14T10:39:59.399Z,15.73
2018-04-14T10:42:27.345Z,15.77
2018-04-14T10:44:55.348Z,15.47
2018-04-14T10:47:23.275Z,12.47
2018-04-14T10:49:51.282Z,13.23
2018-04-14T10:52:19.191Z,14.27
2018-04-14T10:54:47.116Z,14.03
2018-04-14T10:57:15.664Z,13.83
2018-04-14T10:59:43.619Z,14.97
2018-04-14T11:02:11.553Z,14.07
2018-04-14T11:04:40.396Z,13.57
2018-04-14T11:07:08.443Z,15.10
2018-04-14T11:09:36.486Z,13.50
2018-04-14T11:12:04.503Z,14.17
2018-04-14T11:14:32.660Z,14.03
2018-04-14T11:17:00.642Z,14.07
2018-04-14T11:19:28.684Z,15.67
2018-04-14T11:21:56.627Z,14.83
2018-04-14T11:24:24.590Z,13.30
2018-04-14T11:26:52.549Z,14.90
2018-04-14T11:29:20.658Z,14.93
2018-04-14T11:31:48.577Z,13.43
2018-04-14T11:34:16.523Z,12.60
2018-04-14T11:36:44.458Z,13.90
2018-04-14T11:39:12.400Z,13.33
2018-04-14T11:41:40.329Z,12.37
2018-04-14T11:44:08.276Z,11.53
2018-04-14T11:46:36.192Z,10.63
2018-04-14T11:49:04.175Z,11.70
2018-04-14T11:51:32.104Z,8.83
2018-04-14T11:54:00.041Z,10.17
2018-04-14T11:56:27.961Z,10.43
2018-04-14T11:58:55.897Z,9.23
2018-04-14T12:01:23.842Z,10.80
2018-04-14T12:03:51.796Z,8.13
2018-04-14T12:06:20.060Z,8.70
2018-04-14T12:08:48.075Z,9.43
2018-04-14T12:11:16.034Z,8.40
2018-04-14T12:13:43.977Z,9.23
2018-04-14T12:16:11.906Z,8.20
2018-04-14T12:18:39.841Z,8.50
2018-04-14T12:21:07.767Z,7.77
2018-04-14T12:23:35.693Z,7.03
2018-04-14T12:26:03.647Z,6.40
2018-04-14T12:28:31.554Z,5.83
2018-04-14T12:30:59.556Z,8.00
2018-04-14T12:33:27.488Z,6.13
2018-04-14T12:35:55.427Z,7.40
2018-04-14T12:38:23.368Z,7.50
2018-04-14T12:40:51.264Z,7.97
2018-04-14T12:43:21.222Z,10.13
2018-04-14T12:45:49.185Z,6.60
2018-04-14T12:48:17.101Z,7.23
2018-04-14T12:50:45.759Z,7.40
2018-04-14T12:53:13.685Z,6.30
2018-04-14T12:55:41.600Z,7.07
2018-04-14T12:58:09.813Z,6.60
2018-04-14T13:00:37.966Z,6.57
2018-04-14T13:03:05.892Z,8.40
2018-04-14T13:05:35.471Z,7.80
2018-04-14T13:08:03.413Z,6.67
2018-04-14T13:10:31.681Z,7.10
2018-04-14T13:12:59.595Z,8.30
2018-04-14T13:15:27.528Z,6.80
2018-04-14T13:17:55.495Z,7.03
2018-04-14T13:20:23.427Z,7.93
2018-04-14T13:22:51.340Z,7.10
2018-04-14T13:25:19.272Z,7.23
2018-04-14T13:27:47.230Z,7.57
2018-04-14T13:30:15.146Z,6.93
2018-04-14T13:32:43.055Z,6.83
2018-04-14T13:35:10.979Z,8.37
2018-04-14T13:37:38.931Z,7.20
2018-04-14T13:40:06.848Z,8.23
2018-04-14T13:42:34.811Z,6.40
2018-04-14T13:45:02.697Z,8.73
2018-04-14T13:47:30.602Z,7.17
2018-04-14T13:49:58.523Z,6.43
2018-04-14T13:52:26.419Z,6.10
2018-04-14T13:54:54.348Z,6.90
2018-04-14T13:57:22.325Z,6.30
2018-04-14T13:59:50.287Z,6.67
2018-04-14T14:02:18.325Z,6.57
2018-04-14T14:04:46.229Z,7.07
2018-04-14T14:07:14.164Z,6.93
2018-04-14T14:09:42.070Z,7.72
2018-04-14T14:12:09.985Z,8.00
2018-04-14T14:14:37.907Z,8.27
2018-04-14T14:17:05.839Z,6.57
2018-04-14T14:19:33.760Z,6.93
2018-04-14T14:22:01.679Z,11.97
2018-04-14T14:24:29.606Z,7.10
2018-04-14T14:26:57.523Z,7.00
2018-04-14T14:29:25.421Z,6.93
2018-04-14T14:31:53.344Z,8.50
2018-04-14T14:34:21.266Z,7.30
2018-04-14T14:36:49.944Z,8.40
2018-04-14T14:39:17.929Z,8.50
2018-04-14T14:41:45.827Z,7.97
2018-04-14T14:44:13.772Z,8.00
2018-04-14T14:46:41.698Z,8.30
2018-04-14T14:49:09.635Z,7.70
2018-04-14T14:51:37.595Z,8.10
2018-04-14T14:54:05.492Z,7.83
2018-04-14T14:56:33.413Z,7.40
2018-04-14T14:59:01.376Z,6.97
2018-04-14T15:01:29.316Z,6.20
2018-04-14T15:03:57.240Z,6.90
2018-04-14T15:06:25.193Z,8.27
2018-04-14T15:08:53.095Z,8.43
2018-04-14T15:11:21.037Z,7.33
2018-04-14T15:13:48.973Z,7.07
2018-04-14T15:16:16.914Z,5.80
2018-04-14T15:18:44.799Z,7.60
2018-04-14T15:21:12.794Z,6.87
2018-04-14T15:23:40.695Z,6.37
2018-04-14T15:26:08.598Z,8.00
2018-04-14T15:28:36.502Z,7.10
2018-04-14T15:31:04.423Z,7.10
2018-04-14T15:33:32.369Z,6.87
2018-04-14T15:36:00.261Z,7.60
2018-04-14T15:38:28.207Z,7.60
2018-04-14T15:40:56.119Z,7.63
2018-04-14T15:43:24.023Z,10.10
2018-04-14T15:45:51.941Z,8.57
2018-04-14T15:48:19.839Z,6.90
2018-04-14T15:50:47.749Z,7.77
2018-04-14T15:53:15.652Z,7.40
2018-04-14T15:55:43.557Z,7.73
2018-04-14T15:58:11.477Z,9.17
2018-04-14T16:00:39.357Z,9.17
2018-04-14T16:03:07.267Z,10.70
2018-04-14T16:05:35.196Z,8.50
2018-04-14T16:08:03.101Z,8.23
2018-04-14T16:10:31.048Z,7.90
2018-04-14T16:12:58.960Z,8.30
2018-04-14T16:15:26.868Z,7.90
2018-04-14T16:17:54.791Z,14.47
2018-04-14T16:20:22.703Z,10.20
2018-04-14T16:22:50.639Z,9.30
2018-04-14T16:25:18.551Z,8.83
2018-04-14T16:27:46.580Z,11.10
2018-04-14T16:30:14.493Z,10.73
2018-04-14T16:32:42.416Z,11.50
2018-04-14T16:35:10.324Z,11.50
2018-04-14T16:37:38.237Z,11.73
2018-04-14T16:40:06.170Z,11.87
2018-04-14T16:42:34.143Z,12.33
2018-04-14T16:45:02.077Z,11.00
2018-04-14T16:47:29.992Z,11.60
2018-04-14T16:49:57.905Z,13.67
2018-04-14T16:52:25.810Z,11.10
2018-04-14T16:54:53.814Z,11.27
2018-04-14T16:57:21.753Z,10.67
2018-04-14T16:59:49.702Z,11.20
2018-04-14T17:02:17.765Z,10.90
2018-04-14T17:04:46.413Z,12.83
2018-04-14T17:07:15.574Z,10.17
2018-04-14T17:09:43.542Z,9.53
2018-04-14T17:12:11.499Z,10.23
2018-04-14T17:14:39.455Z,11.93
2018-04-14T17:17:07.567Z,11.53
2018-04-14T17:19:35.486Z,11.80
2018-04-14T17:22:03.585Z,17.30
2018-04-14T17:24:31.527Z,12.37
2018-04-14T17:26:59.451Z,27.90
2018-04-14T17:29:28.084Z,15.70
2018-04-14T17:31:56.121Z,15.93
2018-04-14T17:34:24.137Z,15.00
2018-04-14T17:36:55.549Z,16.03
2018-04-14T17:39:24.207Z,15.70
2018-04-14T17:41:52.234Z,18.67
2018-04-14T17:44:20.225Z,17.30
2018-04-14T17:46:48.095Z,19.40
2018-04-14T17:49:16.237Z,19.50
2018-04-14T17:51:44.200Z,19.70
2018-04-14T17:54:12.377Z,20.30
2018-04-14T17:59:14.607Z,19.23
2018-04-14T18:01:42.554Z,20.10
2018-04-14T18:04:10.629Z,20.70
2018-04-14T18:06:38.602Z,22.27
2018-04-14T18:09:06.545Z,25.07
2018-04-14T18:11:35.318Z,22.80
2018-04-14T18:14:03.920Z,24.67
2018-04-14T18:16:32.238Z,23.57
2018-04-14T18:19:00.330Z,24.20
2018-04-14T18:21:28.260Z,26.57
2018-04-14T18:23:56.248Z,27.77
2018-04-14T18:26:24.270Z,26.13
2018-04-14T18:28:53.390Z,29.37
2018-04-14T18:31:22.339Z,30.43
2018-04-14T18:33:53.650Z,28.90
2018-04-14T18:36:21.743Z,30.03
2018-04-14T18:38:50.966Z,33.10
2018-04-14T18:41:19.080Z,32.63
2018-04-14T18:43:47.208Z,33.50
2018-04-14T18:46:15.309Z,32.30
2018-04-14T18:48:44.836Z,31.97
2018-04-14T18:51:12.877Z,33.13
2018-04-14T18:53:41.573Z,32.43
2018-04-14T18:56:09.643Z,30.73
2018-04-14T18:58:37.945Z,32.90
2018-04-14T19:01:06.638Z,31.83
2018-04-14T19:03:35.089Z,34.50
2018-04-14T19:06:03.382Z,32.73
2018-04-14T19:08:32.701Z,32.27
2018-04-14T19:11:00.772Z,31.63
2018-04-14T19:13:29.734Z,36.97
2018-04-14T19:15:57.864Z,37.47
2018-04-14T19:18:26.019Z,33.63
2018-04-14T19:20:54.407Z,34.90
2018-04-14T19:23:24.479Z,35.60
2018-04-14T19:25:53.420Z,36.03
2018-04-14T19:28:21.487Z,32.80
2018-04-14T19:30:50.371Z,33.07
2018-04-14T19:33:18.427Z,34.30
2018-04-14T19:35:46.426Z,33.00
2018-04-14T19:38:15.017Z,31.83
2018-04-14T19:40:42.985Z,37.37
2018-04-14T19:43:11.038Z,32.87
2018-04-14T19:45:39.032Z,36.90
2018-04-14T19:48:07.920Z,36.30
2018-04-14T19:50:36.840Z,35.70
2018-04-14T19:53:06.292Z,35.27
2018-04-14T19:55:35.525Z,29.37
2018-04-14T19:58:03.910Z,36.13
2018-04-14T20:00:33.042Z,39.53
2018-04-14T20:03:02.500Z,39.57
2018-04-14T20:05:30.589Z,37.90
2018-04-14T20:07:58.578Z,39.20
2018-04-14T20:10:27.967Z,42.23
2018-04-14T20:12:57.027Z,40.37
2018-04-14T20:15:25.239Z,42.50
2018-04-14T20:17:53.694Z,40.10
2018-04-14T20:20:21.795Z,39.63
2018-04-14T20:22:49.872Z,39.93
2018-04-14T20:25:17.906Z,42.03
2018-04-14T20:27:45.874Z,41.27
2018-04-14T20:30:14.919Z,45.60
2018-04-14T20:32:42.992Z,45.87
2018-04-14T20:35:10.957Z,43.07
2018-04-14T20:37:38.936Z,45.70
2018-04-14T20:40:06.917Z,46.83
2018-04-14T20:42:35.116Z,41.80
2018-04-14T20:45:03.194Z,43.77
2018-04-14T20:47:31.158Z,45.90
2018-04-14T20:49:59.138Z,46.17
2018-04-14T20:52:27.196Z,46.10
2018-04-14T20:54:55.319Z,50.87
2018-04-14T20:57:23.370Z,52.60
2018-04-14T20:59:51.391Z,52.20
2018-04-14T21:02:19.460Z,53.63
2018-04-14T21:04:48.418Z,53.07
2018-04-14T21:07:17.170Z,54.77
2018-04-14T21:09:45.406Z,57.37
2018-04-14T21:12:13.780Z,59.87
2018-04-14T21:14:42.476Z,64.50
2018-04-14T21:17:11.464Z,60.40
2018-04-14T21:19:39.480Z,60.30
2018-04-14T21:22:07.603Z,63.17
2018-04-14T21:24:36.156Z,65.27
2018-04-14T21:27:04.507Z,61.97
2018-04-14T21:29:32.576Z,69.63
2018-04-14T21:32:01.265Z,63.97
2018-04-14T21:34:29.270Z,61.60
2018-04-14T21:36:57.368Z,62.53
2018-04-14T21:39:25.554Z,64.80
2018-04-14T21:41:53.971Z,68.87
2018-04-14T21:44:22.910Z,66.50
2018-04-14T21:46:50.882Z,66.83
2018-04-14T21:49:19.419Z,64.20
2018-04-14T21:51:47.588Z,63.83
2018-04-14T21:54:16.386Z,59.37
2018-04-14T21:56:44.567Z,70.83
2018-04-14T21:59:12.638Z,61.47
2018-04-14T22:01:40.616Z,64.77
2018-04-14T22:04:08.711Z,60.53
2018-04-14T22:06:36.768Z,66.63
2018-04-14T22:09:05.041Z,61.30
2018-04-14T22:11:33.415Z,63.30
2018-04-14T22:14:02.209Z,64.20
2018-04-14T22:16:30.426Z,55.97
2018-04-14T22:18:58.905Z,62.30
2018-04-14T22:21:28.788Z,61.50
2018-04-14T22:23:58.554Z,67.27
2018-04-14T22:26:28.008Z,66.60
2018-04-14T22:28:56.017Z,62.60
2018-04-14T22:31:24.100Z,60.70
2018-04-14T22:33:52.334Z,59.67
2018-04-14T22:36:20.474Z,60.40
2018-04-14T22:38:48.858Z,60.03
2018-04-14T22:41:17.037Z,70.60
2018-04-14T22:43:45.199Z,67.67
2018-04-14T22:46:13.957Z,66.97
2018-04-14T22:48:41.925Z,67.50
2018-04-14T22:51:10.028Z,68.13
2018-04-14T22:53:38.102Z,66.87
2018-04-14T22:56:06.200Z,70.97
2018-04-14T22:58:34.311Z,66.87
2018-04-14T23:01:02.371Z,74.23
2018-04-14T23:03:30.656Z,74.37
2018-04-14T23:05:58.667Z,69.33
2018-04-14T23:08:26.798Z,77.80
2018-04-14T23:10:54.839Z,69.67
2018-04-14T23:13:24.387Z,76.17
2018-04-14T23:15:53.446Z,78.93
2018-04-14T23:18:21.756Z,80.90
2018-04-14T23:20:49.779Z,79.67
2018-04-14T23:23:17.801Z,76.90
2018-04-14T23:25:45.918Z,77.13
2018-04-14T23:28:14.048Z,76.23
2018-04-14T23:30:42.940Z,81.23
2018-04-14T23:33:11.158Z,73.47
2018-04-14T23:35:39.153Z,79.30
2018-04-14T23:38:07.673Z,81.10
2018-04-14T23:40:35.772Z,82.23
2018-04-14T23:43:03.810Z,79.27
2018-04-14T23:45:32.025Z,78.07
2018-04-14T23:48:01.097Z,79.93
2018-04-14T23:50:32.066Z,84.90
2018-04-14T23:53:00.979Z,72.37
2018-04-14T23:55:29.082Z,74.30
2018-04-14T23:57:57.177Z,79.57
